Air Quality Table

TIMESTAMP NO2 SO2 O3 PM10 PM2.5 TEMP HUM AIRPRES WS WD NO
2021-07-28 08:00 56.29 ug/m3 2.06 ug/m3 53.72 ug/m3 40.36 ug/m3 ug/m3 29.66 C 35.45 % 1,008.48 mbar 1.77 m/s 222.72 Deg 12.36 ug/m3
2021-07-28 07:00 69.89 ug/m3 1.98 ug/m3 30.72 ug/m3 33.13 ug/m3 ug/m3 27.66 C 45.48 % 1,008.36 mbar 1 m/s 297.85 Deg 15.36 ug/m3
2021-07-28 06:00 43.8 ug/m3 1.96 ug/m3 50 ug/m3 25.78 ug/m3 ug/m3 26.08 C 57.53 % 1,008.13 mbar 1.82 m/s 304.03 Deg 4.02 ug/m3
2021-07-28 05:00 25.7 ug/m3 1.51 ug/m3 65.66 ug/m3 22.26 ug/m3 ug/m3 26.11 C 58.5 % 1,008.00 mbar 1.59 m/s 311.98 Deg 1.54 ug/m3
2021-07-28 04:00 11.01 ug/m3 1.59 ug/m3 81.93 ug/m3 11.17 ug/m3 ug/m3 26.21 C 55.6 % 1,007.93 mbar 1.69 m/s 312.3 Deg 0.54 ug/m3
2021-07-28 03:00 12.47 ug/m3 1.86 ug/m3 74.95 ug/m3 9.54 ug/m3 ug/m3 26.63 C 45.28 % 1,008.11 mbar 1.47 m/s 320.37 Deg 0.58 ug/m3
2021-07-28 02:00 30.75 ug/m3 1.65 ug/m3 52.55 ug/m3 12.1 ug/m3 ug/m3 27.35 C 43.07 % 1,008.37 mbar 1.63 m/s 319.8 Deg 0.78 ug/m3
2021-07-28 01:00 30.95 ug/m3 1.64 ug/m3 59.4 ug/m3 12.99 ug/m3 ug/m3 27.91 C 41.52 % 1,008.69 mbar 1.27 m/s 314.47 Deg 0.7 ug/m3
2021-07-28 00:00 22.23 ug/m3 1.55 ug/m3 81.28 ug/m3 20.81 ug/m3 ug/m3 28.19 C 38.98 % 1,009.14 mbar 1.22 m/s 279.97 Deg 1.12 ug/m3
2021-07-27 23:00 18.34 ug/m3 1.54 ug/m3 81.78 ug/m3 33.11 ug/m3 ug/m3 27.11 C 64.72 % 1,009.47 mbar 0.93 m/s 152.97 Deg 1.26 ug/m3
2021-07-27 22:00 19.42 ug/m3 1.35 ug/m3 72.72 ug/m3 30 ug/m3 ug/m3 26.54 C 81.58 % 1,009.60 mbar 0.41 m/s 195.97 Deg 0.69 ug/m3
2021-07-27 21:00 12.54 ug/m3 1.31 ug/m3 83.51 ug/m3 19.72 ug/m3 ug/m3 26.82 C 80.3 % 1,009.59 mbar 0.69 m/s 135.17 Deg 0.61 ug/m3
2021-07-27 20:00 28.83 ug/m3 1.3 ug/m3 72.77 ug/m3 21.37 ug/m3 ug/m3 27.31 C 78.28 % 1,009.23 mbar 1.2 m/s 149.15 Deg 0.82 ug/m3
2021-07-27 19:00 4.4 ug/m3 1.39 ug/m3 102.56 ug/m3 26.86 ug/m3 ug/m3 27.93 C 80.71 % 1,009.14 mbar 1.53 m/s 130.57 Deg 0.42 ug/m3
2021-07-27 18:00 3.22 ug/m3 1.37 ug/m3 105.16 ug/m3 24.87 ug/m3 ug/m3 28.46 C 77.66 % 1,009.09 mbar 1.85 m/s 111.33 Deg 0.68 ug/m3
2021-07-27 17:00 3.05 ug/m3 1.37 ug/m3 110.41 ug/m3 17.48 ug/m3 ug/m3 28.94 C 76.45 % 1,009.28 mbar 2.17 m/s 115.82 Deg 0.77 ug/m3
2021-07-27 16:00 2.3 ug/m3 1.52 ug/m3 110.86 ug/m3 17.1 ug/m3 ug/m3 28.89 C 78.11 % 1,009.67 mbar 2.2 m/s 101.6 Deg 0.55 ug/m3
2021-07-27 15:00 2.74 ug/m3 1.34 ug/m3 112.78 ug/m3 11.77 ug/m3 ug/m3 29.12 C 78.32 % 1,009.91 mbar 2.7 m/s 111.88 Deg 0.56 ug/m3
2021-07-27 14:00 2.91 ug/m3 1.3 ug/m3 113.1 ug/m3 5.29 ug/m3 ug/m3 28.97 C 77.73 % 1,010.26 mbar 3.15 m/s 114.83 Deg 0.66 ug/m3
2021-07-27 13:00 3.62 ug/m3 1.12 ug/m3 111.44 ug/m3 4.57 ug/m3 ug/m3 29.54 C 72.88 % 1,010.67 mbar 2.37 m/s 87.65 Deg 0.56 ug/m3
2021-07-27 12:00 6.23 ug/m3 1.29 ug/m3 104.08 ug/m3 6.39 ug/m3 ug/m3 29.44 C 72.87 % 1,010.73 mbar 2.63 m/s 62.67 Deg 1.04 ug/m3
2021-07-27 11:00 5.75 ug/m3 -13.6 ug/m3 106.41 ug/m3 10.03 ug/m3 ug/m3 30.78 C 46.96 % 1,010.72 mbar 2.49 m/s 185.47 Deg 0.79 ug/m3
2021-07-27 10:00 8.42 ug/m3 -7.91 ug/m3 97.25 ug/m3 15.51 ug/m3 ug/m3 28.89 C 66.41 % 1,010.75 mbar 2.89 m/s 190.57 Deg 1.23 ug/m3

It is to be noted that the data is provisional and subject to quality assurance procedures. For validated data kindly refer your request to contact.air@era.org.mt